Time;durP1;ratioP1;P1;durP2;ratioP2;P2;SDS_P1;SDS_P2;PMS_P1;PMS_P2;Temp;Humidity;BMP_temperature;BMP_pressure;BME280_temperature;BME280_humidity;BME280_pressure;Samples;Min_cycle;Max_cycle;Signal;HPM_P1;HPM_P2
2022/11/03 00:00:33;;;;;;;10.65;3.72;;;;;;;13.12;50.70;101804.28;4932311;28;99165;-70
2022/11/03 00:02:59;;;;;;;9.88;3.60;;;;;;;13.05;50.82;101806.22;4933464;28;96871;-70
2022/11/03 00:08:11;;;;;;;11.52;3.65;;;;;;;13.01;51.21;101817.81;4934467;28;97172;-70
2022/11/03 00:10:37;;;;;;;12.90;3.88;;;;;;;12.84;51.36;101809.50;4931249;28;99126;-71
2022/11/03 00:13:04;;;;;;;11.43;3.42;;;;;;;12.75;51.69;101804.44;4930477;28;97171;-70
2022/11/03 00:15:30;;;;;;;10.30;3.15;;;;;;;12.94;51.43;101818.91;4936203;28;97991;-71
2022/11/03 00:17:57;;;;;;;13.23;3.45;;;;;;;12.71;52.32;101808.97;4932398;28;99018;-71
2022/11/03 00:20:23;;;;;;;9.68;3.30;;;;;;;12.89;51.83;101802.25;4928784;28;98878;-71
2022/11/03 00:22:50;;;;;;;9.98;3.58;;;;;;;12.93;51.82;101798.59;4930937;28;97043;-71
2022/11/03 00:25:18;;;;;;;9.43;3.38;;;;;;;12.80;52.17;101794.56;4930527;28;97426;-70
2022/11/03 00:27:44;;;;;;;13.73;3.10;;;;;;;12.62;52.63;101795.06;4931357;28;99533;-70
2022/11/03 00:30:11;;;;;;;10.32;3.13;;;;;;;12.77;52.48;101799.97;4932245;28;100352;-71
2022/11/03 00:32:38;;;;;;;13.50;3.92;;;;;;;12.52;53.14;101796.25;4930396;28;98046;-70
2022/11/03 00:35:05;;;;;;;7.57;3.20;;;;;;;12.67;52.93;101803.75;4931676;28;97306;-70
2022/11/03 00:37:31;;;;;;;9.43;3.13;;;;;;;12.82;52.54;101798.03;4927344;28;98981;-70
2022/11/03 00:39:57;;;;;;;10.40;3.33;;;;;;;12.64;52.64;101801.22;4929537;28;99033;-70
2022/11/03 00:42:25;;;;;;;10.75;3.45;;;;;;;12.78;52.69;101799.06;4932957;28;96956;-70
2022/11/03 00:44:51;;;;;;;12.30;3.45;;;;;;;12.72;52.92;101794.78;4932460;28;97768;-70
2022/11/03 00:47:18;;;;;;;4.57;2.95;;;;;;;12.71;53.11;101778.91;4931440;28;98904;-70
2022/11/03 00:49:44;;;;;;;7.97;3.08;;;;;;;12.97;52.34;101780.81;4932067;28;99096;-71
2022/11/03 00:52:10;;;;;;;8.95;3.33;;;;;;;12.64;53.24;101787.94;4931370;28;96854;-69
2022/11/03 00:54:37;;;;;;;11.00;3.15;;;;;;;12.70;53.22;101769.22;4933094;28;97048;-70
2022/11/03 00:57:03;;;;;;;11.50;4.10;;;;;;;12.76;52.88;101777.00;4925529;28;99280;-71
2022/11/03 00:59:31;;;;;;;13.23;3.75;;;;;;;12.93;52.57;101772.06;4933656;28;100887;-70
2022/11/03 01:01:57;;;;;;;14.23;3.50;;;;;;;12.94;53.29;101767.63;4931652;28;96765;-70
2022/11/03 01:07:08;;;;;;;14.80;3.65;;;;;;;12.87;52.87;101763.41;4929898;28;97197;-70
2022/11/03 01:09:36;;;;;;;11.55;3.42;;;;;;;12.89;53.01;101764.25;4929090;28;99349;-71
2022/11/03 01:12:05;;;;;;;10.50;3.72;;;;;;;12.88;52.86;101770.47;4931194;28;96864;-70
2022/11/03 01:14:36;;;;;;;8.88;3.28;;;;;;;12.87;53.10;101766.94;4931077;28;97849;-70
2022/11/03 01:17:05;;;;;;;16.67;3.28;;;;;;;12.66;53.79;101768.44;4932550;28;98884;-70
2022/11/03 01:19:31;;;;;;;14.43;3.55;;;;;;;12.55;54.04;101764.31;4928698;28;98861;-71
2022/11/03 01:21:57;;;;;;;8.40;3.10;;;;;;;12.67;53.90;101764.84;4930621;28;96945;-71
2022/11/03 01:24:24;;;;;;;9.65;3.38;;;;;;;12.63;53.93;101763.22;4933746;28;97035;-71
2022/11/03 01:26:50;;;;;;;9.65;3.90;;;;;;;12.78;53.49;101762.78;4931984;28;99410;-70
2022/11/03 01:29:17;;;;;;;11.00;4.53;;;;;;;12.59;54.07;101768.66;4930677;28;100027;-69
2022/11/03 01:31:44;;;;;;;13.57;3.70;;;;;;;12.66;53.97;101770.22;4937349;28;96752;-70
2022/11/03 01:34:14;;;;;;;10.55;3.50;;;;;;;12.53;54.47;101769.69;4932473;28;96890;-70
2022/11/03 01:36:41;;;;;;;13.32;3.60;;;;;;;12.61;53.94;101765.03;4933339;28;100330;-70
2022/11/03 01:39:10;;;;;;;8.98;3.70;;;;;;;12.48;54.33;101762.75;4935392;28;98514;-70
2022/11/03 01:41:36;;;;;;;13.55;3.85;;;;;;;12.49;54.69;101768.03;4925082;28;98884;-71
2022/11/03 01:44:33;;;;;;;11.98;3.60;;;;;;;12.70;54.14;101753.31;4930185;28;98097;-70
2022/11/03 01:47:06;;;;;;;12.17;3.37;;;;;;;12.33;55.06;101756.97;4929308;28;99206;-70
2022/11/03 01:49:39;;;;;;;9.60;3.28;;;;;;;12.73;54.03;101755.88;4932259;28;98712;-70
2022/11/03 01:52:09;;;;;;;8.90;3.05;;;;;;;12.46;55.32;101764.59;4932536;28;96805;-70
2022/11/03 01:54:38;;;;;;;17.55;3.15;;;;;;;12.64;54.37;101757.00;4932162;28;96798;-70
2022/11/03 01:57:09;;;;;;;14.50;3.03;;;;;;;12.56;54.79;101766.06;4933268;28;99520;-70
2022/11/03 01:59:36;;;;;;;8.18;2.47;;;;;;;12.45;55.09;101747.81;4931168;28;99333;-70
2022/11/03 02:02:04;;;;;;;13.43;3.50;;;;;;;12.39;55.27;101748.00;4930388;28;97725;-70
2022/11/03 02:04:33;;;;;;;12.90;2.95;;;;;;;12.47;55.11;101745.13;4930862;28;98166;-70
2022/11/03 02:07:08;;;;;;;14.95;3.38;;;;;;;12.47;54.77;101740.69;4932349;28;99303;-69
2022/11/03 02:09:34;;;;;;;9.40;3.28;;;;;;;12.23;55.74;101731.63;4933479;28;98864;-70
2022/11/03 02:12:07;;;;;;;12.48;2.83;;;;;;;12.21;55.62;101735.22;4929440;28;96862;-70
2022/11/03 02:14:37;;;;;;;8.90;3.22;;;;;;;12.20;55.40;101738.78;4930917;28;96845;-70
2022/11/03 02:17:09;;;;;;;10.68;3.55;;;;;;;12.22;55.35;101729.88;4930647;28;99333;-70
2022/11/03 02:19:39;;;;;;;13.48;3.42;;;;;;;12.10;55.66;101724.03;4930167;28;99188;-69
2022/11/03 02:22:21;;;;;;;10.00;3.15;;;;;;;12.08;55.88;101716.13;4928193;28;98535;-69
2022/11/03 02:24:51;;;;;;;9.32;2.80;;;;;;;12.09;55.77;101722.28;4931029;28;96994;-69
2022/11/03 02:27:19;;;;;;;12.23;2.92;;;;;;;12.10;55.90;101729.34;4929974;28;97785;-70
2022/11/03 02:29:46;;;;;;;7.60;3.13;;;;;;;12.05;55.74;101718.88;4928215;28;99405;-71
2022/11/03 02:32:21;;;;;;;9.55;3.45;;;;;;;11.94;56.14;101719.16;4927189;28;97131;-70
2022/11/03 02:34:50;;;;;;;9.00;3.42;;;;;;;12.02;55.86;101710.13;4933435;28;96914;-70
2022/11/03 02:37:23;;;;;;;10.32;2.90;;;;;;;12.11;55.88;101710.75;4928989;28;99063;-70
2022/11/03 02:39:54;;;;;;;12.73;3.38;;;;;;;11.96;56.03;101727.91;4930023;28;99219;-70
2022/11/03 02:42:24;;;;;;;12.48;3.10;;;;;;;11.79;56.52;101718.66;4926850;28;96969;-70
2022/11/03 02:44:54;;;;;;;9.63;2.63;;;;;;;11.83;56.32;101720.31;4930940;28;98273;-69
2022/11/03 02:47:23;;;;;;;8.48;3.00;;;;;;;11.87;56.21;101719.34;4928968;28;99079;-70
2022/11/03 02:49:53;;;;;;;11.80;3.05;;;;;;;11.69;56.97;101710.03;4930659;28;99949;-70
2022/11/03 02:52:38;;;;;;;14.90;3.30;;;;;;;11.68;56.95;101705.66;4931817;28;96829;-70
2022/11/03 02:55:11;;;;;;;10.30;2.92;;;;;;;11.93;56.26;101713.88;4930684;28;96985;-70
2022/11/03 02:57:46;;;;;;;10.25;2.90;;;;;;;11.83;56.34;101709.72;4930524;28;98653;-69
2022/11/03 03:00:16;;;;;;;13.55;3.30;;;;;;;11.76;56.31;101705.47;4926679;28;98976;-70
2022/11/03 03:02:51;;;;;;;8.35;3.13;;;;;;;12.08;55.50;101694.94;4933385;28;97381;-68
2022/11/03 03:05:20;;;;;;;16.05;2.90;;;;;;;11.84;55.98;101691.16;4934012;28;96721;-71
2022/11/03 03:07:52;;;;;;;12.77;2.50;;;;;;;11.98;55.76;101686.38;4933039;28;99552;-70
2022/11/03 03:10:21;;;;;;;8.45;2.63;;;;;;;12.05;55.58;101687.06;4934283;28;99093;-70
2022/11/03 03:12:52;;;;;;;13.00;2.45;;;;;;;12.13;55.33;101674.50;4928784;28;96856;-71
2022/11/03 03:15:23;;;;;;;13.73;3.28;;;;;;;12.13;55.14;101671.84;4934101;28;96847;-70
2022/11/03 03:17:54;;;;;;;13.60;3.03;;;;;;;12.24;54.90;101677.72;4933508;28;98934;-71
2022/11/03 03:20:24;;;;;;;10.63;2.88;;;;;;;12.23;54.88;101680.41;4930987;28;97681;-70
2022/11/03 03:22:55;;;;;;;10.15;2.53;;;;;;;12.17;54.87;101683.22;4933914;28;97073;-70
2022/11/03 03:25:25;;;;;;;7.57;2.30;;;;;;;12.10;55.03;101687.81;4934156;28;97032;-69
2022/11/03 03:28:00;;;;;;;8.27;2.55;;;;;;;12.12;55.11;101680.72;4933020;28;98558;-70
2022/11/03 03:30:28;;;;;;;10.18;2.53;;;;;;;12.13;54.94;101677.16;4932441;28;99127;-70
2022/11/03 03:32:56;;;;;;;6.30;2.78;;;;;;;12.17;55.09;101678.78;4933636;28;97689;-71
2022/11/03 03:35:26;;;;;;;17.58;2.78;;;;;;;12.21;54.77;101672.47;4934103;28;96742;-70
2022/11/03 03:37:57;;;;;;;11.52;3.08;;;;;;;12.28;54.77;101671.41;4935158;28;99242;-70
2022/11/03 03:40:28;;;;;;;9.77;2.10;;;;;;;12.13;55.08;101676.28;4933409;28;98800;-70
2022/11/03 03:42:57;;;;;;;10.70;2.33;;;;;;;12.19;54.77;101676.97;4934749;28;96855;-70
2022/11/03 03:45:25;;;;;;;8.68;2.55;;;;;;;12.33;54.35;101673.94;4933598;28;96846;-70
2022/11/03 03:47:52;;;;;;;8.20;2.10;;;;;;;12.17;54.74;101668.19;4932828;28;99173;-70
2022/11/03 03:50:20;;;;;;;13.18;2.70;;;;;;;12.28;54.52;101667.88;4933389;28;98830;-71
2022/11/03 03:52:48;;;;;;;6.80;2.15;;;;;;;12.03;55.13;101669.47;4933741;28;97050;-70
2022/11/03 03:55:18;;;;;;;13.60;2.95;;;;;;;12.09;55.10;101664.88;4933521;28;96800;-70
2022/11/03 03:57:44;;;;;;;14.52;2.70;;;;;;;12.00;55.30;101665.16;4934033;28;98992;-69
2022/11/03 04:00:15;;;;;;;7.25;2.40;;;;;;;12.06;55.30;101670.28;4932568;28;99317;-69
2022/11/03 04:02:41;;;;;;;10.35;2.92;;;;;;;11.96;55.39;101668.75;4931243;28;98810;-70
2022/11/03 04:05:08;;;;;;;5.93;2.42;;;;;;;11.92;55.49;101665.34;4931289;28;96986;-69
2022/11/03 04:10:22;;;;;;;9.30;2.17;;;;;;;11.90;55.46;101659.22;4927047;28;98513;-69
2022/11/03 04:23:48;;;;;;;7.47;2.30;;;;;;;12.03;55.55;101657.09;4931189;28;96761;-70
2022/11/03 04:26:17;;;;;;;10.65;2.72;;;;;;;11.87;55.87;101659.31;4933523;28;96996;-70
2022/11/03 04:28:43;;;;;;;7.90;3.03;;;;;;;12.02;55.63;101650.06;4931902;28;98769;-70
2022/11/03 04:31:13;;;;;;;12.00;2.65;;;;;;;12.09;55.34;101648.97;4929968;28;99302;-70
2022/11/03 04:33:40;;;;;;;13.88;2.75;;;;;;;12.10;55.37;101645.44;4932200;28;97823;-70
2022/11/03 04:36:12;;;;;;;12.93;2.63;;;;;;;11.99;55.61;101650.16;4932079;28;97714;-70
2022/11/03 04:38:39;;;;;;;8.63;2.35;;;;;;;12.09;55.24;101648.09;4930191;28;98943;-71
2022/11/03 04:41:12;;;;;;;7.22;2.20;;;;;;;12.19;54.82;101644.31;4931716;28;99118;-71
2022/11/03 04:43:38;;;;;;;8.63;2.75;;;;;;;12.08;55.21;101639.28;4934404;28;96902;-70
2022/11/03 04:46:05;;;;;;;6.82;2.38;;;;;;;12.07;55.23;101631.41;4932818;28;97090;-71
2022/11/03 04:48:34;;;;;;;7.80;2.70;;;;;;;11.89;55.96;101636.28;4930987;28;98998;-71
2022/11/03 04:51:10;;;;;;;8.90;2.45;;;;;;;11.96;55.59;101629.03;4927767;28;98963;-70
2022/11/03 04:53:36;;;;;;;;;;;;;;;12.04;55.20;101626.19;4929982;28;97051;-70
2022/11/03 04:56:14;;;;;;;8.47;3.20;;;;;;;11.92;55.37;101622.97;4927755;28;97427;-69
2022/11/03 04:58:41;;;;;;;11.73;2.70;;;;;;;11.72;55.91;101621.72;4931700;28;98961;-69
2022/11/03 05:01:12;;;;;;;11.70;2.90;;;;;;;11.50;56.44;101611.69;4932833;28;98969;-70
2022/11/03 05:03:41;;;;;;;13.20;3.38;;;;;;;11.62;56.23;101614.94;4932496;28;97774;-72
2022/11/03 05:06:14;;;;;;;10.20;3.47;;;;;;;11.57;56.47;101617.69;4933282;28;97970;-70
2022/11/03 05:08:42;;;;;;;10.50;2.85;;;;;;;11.61;56.35;101618.50;4930611;28;98936;-71
2022/11/03 05:11:17;;;;;;;10.88;3.35;;;;;;;11.70;56.20;101616.47;4931585;28;99058;-70
2022/11/03 05:13:44;;;;;;;7.90;3.20;;;;;;;11.58;56.47;101614.13;4929702;28;97120;-69
2022/11/03 05:16:10;;;;;;;13.68;3.58;;;;;;;11.47;56.77;101610.91;4932531;28;97242;-72
2022/11/03 05:18:42;;;;;;;14.23;3.75;;;;;;;11.28;57.21;101599.91;4930489;28;98945;-70
2022/11/03 05:21:13;;;;;;;10.77;3.70;;;;;;;11.24;57.18;101603.53;4930720;28;97625;-70
2022/11/03 05:23:41;;;;;;;11.65;3.83;;;;;;;11.37;56.83;101594.38;4930132;28;96857;-70
2022/11/03 05:26:14;;;;;;;8.27;3.13;;;;;;;11.23;57.24;101585.91;4931976;28;97892;-69
2022/11/03 05:28:44;;;;;;;13.38;4.25;;;;;;;11.25;57.31;101586.75;4934255;28;98928;-69
2022/11/03 05:31:22;;;;;;;15.05;4.40;;;;;;;11.32;57.00;101577.75;4929572;28;99193;-68
2022/11/03 05:33:52;;;;;;;10.73;3.47;;;;;;;11.25;57.22;101578.81;4933927;28;96859;-70
2022/11/03 05:36:21;;;;;;;12.20;3.70;;;;;;;11.15;57.38;101572.03;4933261;28;97344;-71
2022/11/03 05:38:48;;;;;;;13.55;3.72;;;;;;;11.22;57.32;101567.47;4934439;28;99574;-70
2022/11/03 05:41:19;;;;;;;13.30;3.78;;;;;;;11.20;57.14;101567.50;4933243;28;98866;-71
2022/11/03 05:43:57;;;;;;;13.43;3.47;;;;;;;11.22;57.42;101565.69;4933124;28;97313;-70
2022/11/03 05:46:27;;;;;;;15.38;5.47;;;;;;;11.33;57.04;101565.41;4929475;28;96913;-70
2022/11/03 05:48:55;;;;;;;15.10;3.83;;;;;;;11.24;57.28;101561.19;4935291;28;98964;-71
2022/11/03 05:51:24;;;;;;;12.43;3.55;;;;;;;11.14;57.67;101565.00;4925424;28;99154;-71
2022/11/03 05:53:53;;;;;;;6.95;3.50;;;;;;;11.35;56.97;101564.47;4929793;28;96808;-71
2022/11/03 05:56:22;;;;;;;9.68;3.80;;;;;;;11.22;57.33;101570.09;4931729;28;97721;-69
2022/11/03 05:58:50;;;;;;;13.32;3.65;;;;;;;10.88;57.95;101568.28;4928036;28;99356;-70
2022/11/03 06:01:20;;;;;;;13.40;3.72;;;;;;;11.06;57.67;101566.94;4924209;28;98796;-70
2022/11/03 06:03:47;;;;;;;11.63;3.70;;;;;;;11.19;57.35;101556.03;4925836;28;97089;-68
2022/11/03 06:06:20;;;;;;;15.23;3.88;;;;;;;11.28;57.03;101570.81;4924272;28;96855;-69
2022/11/03 06:08:48;;;;;;;14.93;4.25;;;;;;;11.36;57.00;101574.09;4925324;28;100105;-70
2022/11/03 06:11:25;;;;;;;11.35;4.18;;;;;;;11.36;57.01;101586.47;4926078;28;99302;-70
2022/11/03 06:13:52;;;;;;;13.73;3.45;;;;;;;11.33;57.09;101578.63;4927221;28;96881;-70
2022/11/03 06:16:36;;;;;;;10.00;3.30;;;;;;;11.25;57.29;101591.16;4926997;28;97693;-70
2022/11/03 06:19:15;;;;;;;11.52;3.50;;;;;;;11.16;57.46;101589.63;4930002;28;98939;-68
2022/11/03 06:21:43;;;;;;;9.18;3.28;;;;;;;11.13;57.55;101587.94;4928469;28;101146;-68
2022/11/03 06:24:11;;;;;;;10.02;2.67;;;;;;;11.19;57.44;101589.56;4932889;28;99342;-70
2022/11/03 06:26:37;;;;;;;9.93;3.55;;;;;;;11.24;57.31;101594.72;4930370;28;98933;-68
2022/11/03 06:29:04;;;;;;;11.55;2.92;;;;;;;11.33;57.10;101600.66;4929873;28;99299;-68
2022/11/03 06:31:33;;;;;;;10.27;3.47;;;;;;;11.24;57.08;101590.31;4932856;28;100617;-68
2022/11/03 06:34:20;;;;;;;9.52;3.25;;;;;;;11.30;56.82;101587.50;4930642;28;99507;-68
2022/11/03 06:36:48;;;;;;;13.65;3.63;;;;;;;11.35;56.45;101585.63;4931822;28;97029;-70
2022/11/03 06:39:20;;;;;;;7.13;3.45;;;;;;;11.32;56.93;101585.69;4934014;28;99296;-68
2022/11/03 06:41:47;;;;;;;13.57;3.90;;;;;;;11.48;56.36;101584.41;4932299;28;99368;-68
2022/11/03 06:44:22;;;;;;;14.90;3.75;;;;;;;11.40;56.61;101574.91;4930710;28;97756;-68
2022/11/03 06:46:48;;;;;;;12.45;4.78;;;;;;;11.43;56.60;101573.06;4935484;28;97374;-68
2022/11/03 06:49:34;;;;;;;13.65;3.60;;;;;;;11.43;56.74;101570.41;4935170;28;99352;-69
2022/11/03 06:52:22;;;;;;;14.52;3.28;;;;;;;11.39;56.72;101559.94;4933963;28;99074;-70
2022/11/03 06:54:50;;;;;;;9.63;2.63;;;;;;;11.32;56.81;101558.38;4931785;28;97772;-69
2022/11/03 06:57:18;;;;;;;10.88;3.47;;;;;;;11.37;56.55;101554.69;4939273;28;97051;-69
2022/11/03 06:59:45;;;;;;;12.02;3.35;;;;;;;11.35;56.91;101556.53;4929856;28;98967;-69
2022/11/03 07:02:34;;;;;;;12.43;4.15;;;;;;;11.42;56.64;101552.78;4936878;28;99160;-68
2022/11/03 07:05:00;;;;;;;12.38;3.90;;;;;;;11.32;56.78;101553.94;4930060;28;96798;-69
2022/11/03 07:07:29;;;;;;;14.85;4.07;;;;;;;11.45;56.88;101559.78;4935338;28;96881;-70
2022/11/03 07:09:55;;;;;;;12.52;3.65;;;;;;;11.67;55.92;101557.44;4929169;28;99164;-68
2022/11/03 07:12:22;;;;;;;9.63;3.50;;;;;;;11.54;56.34;101554.25;4933056;28;99709;-69
2022/11/03 07:14:48;;;;;;;9.63;3.25;;;;;;;11.54;56.46;101552.47;4933692;28;97447;-69
2022/11/03 07:17:20;;;;;;;10.85;3.13;;;;;;;11.78;56.14;101555.41;4939220;28;96836;-69
2022/11/03 07:19:47;;;;;;;9.93;3.17;;;;;;;11.68;56.31;101553.88;4934796;28;99010;-70
2022/11/03 07:22:19;;;;;;;11.98;3.78;;;;;;;11.78;55.98;101553.63;4932610;28;98787;-68
2022/11/03 07:24:49;;;;;;;10.05;4.10;;;;;;;11.74;55.96;101553.75;4934476;28;96813;-68
2022/11/03 07:27:21;;;;;;;11.48;3.13;;;;;;;11.91;55.57;101555.00;4933832;28;98318;-69
2022/11/03 07:29:49;;;;;;;15.02;3.08;;;;;;;11.99;55.23;101554.81;4932005;28;101036;-68
2022/11/03 07:32:19;;;;;;;16.02;3.42;;;;;;;12.16;54.67;101560.47;4932628;28;98970;-69
2022/11/03 07:34:47;;;;;;;17.95;3.30;;;;;;;12.06;55.09;101559.00;4939915;28;97058;-68
2022/11/03 07:37:18;;;;;;;14.57;3.60;;;;;;;12.08;54.72;101557.16;4933405;28;97340;-68
2022/11/03 07:39:47;;;;;;;11.20;3.17;;;;;;;12.16;54.66;101560.47;4933316;28;98797;-69
2022/11/03 07:42:18;;;;;;;13.63;3.75;;;;;;;12.41;54.18;101560.59;4933345;28;98635;-69
2022/11/03 07:44:45;;;;;;;11.45;3.88;;;;;;;12.65;53.48;101572.25;4933192;28;96774;-69
2022/11/03 07:47:13;;;;;;;12.43;3.88;;;;;;;12.75;53.34;101552.47;4934296;28;97134;-69
2022/11/03 07:49:41;;;;;;;9.00;2.97;;;;;;;12.71;53.07;101551.72;4931634;28;99123;-69
2022/11/03 07:52:11;;;;;;;10.20;3.10;;;;;;;12.88;52.63;101545.88;4933515;28;98957;-70
2022/11/03 07:54:38;;;;;;;10.38;3.03;;;;;;;12.68;53.24;101542.97;4934106;28;96807;-68
2022/11/03 07:57:13;;;;;;;10.38;3.78;;;;;;;12.95;52.72;101541.22;4934536;28;97657;-69
2022/11/03 07:59:42;;;;;;;13.30;3.17;;;;;;;12.81;52.74;101531.06;4932383;28;99174;-69
2022/11/03 08:02:25;;;;;;;11.27;2.83;;;;;;;13.24;51.92;101527.91;4932918;28;98864;-70
2022/11/03 08:04:52;;;;;;;15.30;3.40;;;;;;;13.43;51.68;101525.47;4932122;28;97000;-69
2022/11/03 08:07:18;;;;;;;15.07;3.45;;;;;;;13.29;51.62;101519.78;4942967;28;97482;-69
2022/11/03 08:09:45;;;;;;;8.82;2.72;;;;;;;13.19;51.70;101519.25;4934107;28;100404;-69
2022/11/03 08:12:13;;;;;;;12.85;3.63;;;;;;;13.18;52.07;101506.88;4933419;28;98809;-70
2022/11/03 08:14:39;;;;;;;16.02;3.10;;;;;;;13.05;51.96;101511.72;4933405;28;97193;-71
2022/11/03 08:17:06;;;;;;;12.25;2.75;;;;;;;13.25;51.67;101507.56;4934091;28;97423;-70
2022/11/03 08:19:32;;;;;;;9.30;2.70;;;;;;;13.35;51.44;101514.25;4934515;28;99385;-70
2022/11/03 08:21:59;;;;;;;20.52;3.83;;;;;;;13.38;51.47;101506.19;4933401;28;98923;-70
2022/11/03 08:24:25;;;;;;;10.27;3.53;;;;;;;13.46;50.98;101499.69;4934530;28;96802;-71
2022/11/03 08:26:51;;;;;;;11.80;3.40;;;;;;;13.53;50.65;101497.66;4934794;28;96912;-72
2022/11/03 08:29:20;;;;;;;11.25;2.97;;;;;;;13.30;51.26;101484.38;4934128;28;100629;-70
2022/11/03 08:31:46;;;;;;;11.13;2.65;;;;;;;13.60;50.93;101491.22;4933214;28;99326;-71
2022/11/03 08:34:13;;;;;;;17.83;3.83;;;;;;;13.65;50.75;101486.63;4931349;28;96905;-71
2022/11/03 08:36:39;;;;;;;15.43;3.78;;;;;;;13.79;49.69;101475.47;4926673;28;97015;-72
2022/11/03 08:39:05;;;;;;;13.63;3.47;;;;;;;13.79;49.83;101472.81;4930474;28;98959;-71
2022/11/03 08:41:32;;;;;;;11.27;3.17;;;;;;;13.73;50.18;101468.59;4932874;28;98946;-71
2022/11/03 08:43:58;;;;;;;12.13;2.83;;;;;;;13.57;50.30;101475.41;4929290;28;98095;-69
2022/11/03 08:46:26;;;;;;;11.82;2.97;;;;;;;13.74;49.84;101462.38;4929170;28;97057;-69
2022/11/03 08:48:53;;;;;;;15.95;3.17;;;;;;;13.74;49.86;101464.16;4933906;28;100045;-69
2022/11/03 08:51:19;;;;;;;12.30;3.65;;;;;;;13.81;49.97;101458.56;4934068;28;98856;-68
2022/11/03 08:53:49;;;;;;;11.57;3.20;;;;;;;14.03;49.44;101460.41;4934135;28;96931;-70
2022/11/03 08:56:16;;;;;;;11.13;3.33;;;;;;;14.21;49.58;101447.28;4929994;28;97043;-68
2022/11/03 08:58:42;;;;;;;11.73;2.70;;;;;;;14.30;48.89;101443.41;4932198;28;99247;-69
2022/11/03 09:01:09;;;;;;;8.43;3.30;;;;;;;14.47;48.41;101440.94;4935485;28;98996;-69
2022/11/03 09:03:37;;;;;;;10.88;2.95;;;;;;;14.55;48.18;101436.19;4918777;28;98833;-68
2022/11/03 09:06:04;;;;;;;11.02;2.90;;;;;;;14.55;48.14;101430.88;4929271;28;98976;-71
2022/11/03 09:08:30;;;;;;;10.63;2.72;;;;;;;14.79;47.79;101430.78;4930766;28;98966;-71
2022/11/03 09:10:57;;;;;;;9.48;2.95;;;;;;;14.56;47.60;101427.28;4928361;28;97726;-71
2022/11/03 09:13:23;;;;;;;8.27;2.10;;;;;;;14.97;47.05;101422.88;4929138;28;98484;-72
2022/11/03 09:15:49;;;;;;;9.50;2.92;;;;;;;14.89;47.35;101421.47;4930062;28;96887;-72
2022/11/03 09:18:16;;;;;;;13.05;3.35;;;;;;;14.93;47.16;101417.75;4932496;28;100962;-72
2022/11/03 09:20:44;;;;;;;10.15;2.53;;;;;;;15.23;46.76;101416.41;4925759;28;99084;-73
2022/11/03 09:23:10;;;;;;;9.35;2.50;;;;;;;15.15;46.12;101406.13;4933299;28;96818;-71
2022/11/03 09:25:37;;;;;;;15.50;3.00;;;;;;;15.18;46.59;101402.44;4929876;28;97647;-72
2022/11/03 09:28:04;;;;;;;13.65;2.53;;;;;;;15.28;45.97;101398.44;4930713;28;98305;-72
2022/11/03 09:30:30;;;;;;;17.10;3.58;;;;;;;15.27;46.11;101396.72;4929769;28;99510;-75
2022/11/03 09:32:57;;;;;;;14.77;2.80;;;;;;;15.44;45.40;101391.50;4929277;28;96970;-72
2022/11/03 09:35:23;;;;;;;13.93;2.45;;;;;;;15.54;45.42;101392.84;4923023;28;99036;-71
2022/11/03 09:37:51;;;;;;;11.70;2.85;;;;;;;15.86;45.11;101379.81;4932047;28;99489;-71
2022/11/03 09:40:20;;;;;;;11.93;2.50;;;;;;;15.76;44.92;101375.84;4928985;28;99164;-71
2022/11/03 09:42:46;;;;;;;14.00;2.65;;;;;;;15.81;45.09;101376.50;4931118;28;96810;-72
2022/11/03 09:45:13;;;;;;;5.78;2.08;;;;;;;15.67;45.00;101368.31;4928727;28;97515;-71
2022/11/03 09:47:42;;;;;;;12.40;3.30;;;;;;;15.62;45.51;101368.50;4930775;28;98278;-71
2022/11/03 09:50:14;;;;;;;10.55;2.75;;;;;;;15.71;45.61;101365.41;4931307;28;98900;-71
2022/11/03 09:52:40;;;;;;;14.27;2.70;;;;;;;16.20;44.49;101355.94;4930726;28;97350;-72
2022/11/03 09:55:14;;;;;;;14.02;2.50;;;;;;;16.28;44.27;101359.06;4931569;28;97102;-71
2022/11/03 09:57:41;;;;;;;12.93;2.13;;;;;;;16.38;43.65;101353.28;4929944;28;99053;-72
2022/11/03 10:00:23;;;;;;;8.32;2.28;;;;;;;16.34;43.41;101355.25;4930977;28;98803;-72
2022/11/03 10:02:50;;;;;;;11.38;1.95;;;;;;;16.42;43.10;101344.19;4931007;28;96749;-73
2022/11/03 10:05:22;;;;;;;9.35;1.83;;;;;;;16.49;43.31;101349.13;4931783;28;97008;-72
2022/11/03 10:07:49;;;;;;;11.23;2.13;;;;;;;16.55;43.08;101342.63;4931775;28;98979;-71
2022/11/03 10:10:20;;;;;;;8.07;2.13;;;;;;;16.99;42.76;101333.25;4928437;28;99269;-71
2022/11/03 10:12:49;;;;;;;10.25;1.88;;;;;;;16.91;42.85;101323.91;4930826;28;96817;-72
2022/11/03 10:15:16;;;;;;;7.35;1.98;;;;;;;16.82;42.61;101329.69;4928062;28;96845;-72
2022/11/03 10:17:44;;;;;;;10.95;2.97;;;;;;;16.81;42.31;101325.31;4928090;28;99123;-73
2022/11/03 10:20:12;;;;;;;11.27;2.65;;;;;;;16.96;42.16;101322.69;4930055;28;98906;-71
2022/11/03 10:22:39;;;;;;;5.40;1.60;;;;;;;16.72;42.39;101310.66;4930769;28;97142;-71
2022/11/03 10:25:30;;;;;;;7.80;2.53;;;;;;;16.77;42.51;101315.75;4930954;28;97454;-71
2022/11/03 10:28:17;;;;;;;6.88;2.58;;;;;;;16.72;42.60;101316.00;4931328;28;98938;-72
2022/11/03 10:30:52;;;;;;;7.07;1.98;;;;;;;16.65;42.98;101312.78;4930915;28;98797;-71
2022/11/03 10:33:29;;;;;;;8.18;1.80;;;;;;;16.51;43.03;101303.72;4931243;28;96815;-71
2022/11/03 10:35:58;;;;;;;10.88;2.22;;;;;;;16.67;42.78;101286.03;4926496;28;97733;-71
2022/11/03 10:38:30;;;;;;;9.57;2.25;;;;;;;16.80;42.90;101287.09;4927547;28;99010;-73
2022/11/03 10:41:10;;;;;;;7.30;2.63;;;;;;;17.06;42.63;101291.06;4928238;28;99197;-71
2022/11/03 10:43:37;;;;;;;10.15;2.15;;;;;;;17.18;42.19;101285.06;4931165;28;96923;-71
2022/11/03 10:46:17;;;;;;;12.82;2.05;;;;;;;17.21;42.18;101279.53;4932093;28;97059;-71
2022/11/03 10:48:44;;;;;;;7.72;2.50;;;;;;;17.46;42.04;101276.34;4931188;28;98944;-72
2022/11/03 10:51:11;;;;;;;13.23;1.90;;;;;;;17.43;42.05;101268.53;4930889;28;98993;-71
2022/11/03 10:53:38;;;;;;;9.30;1.67;;;;;;;17.30;42.11;101268.34;4930106;28;97024;-71
2022/11/03 10:56:07;;;;;;;9.20;1.88;;;;;;;17.37;42.15;101258.19;4931773;28;97072;-71
2022/11/03 10:58:34;;;;;;;12.68;2.33;;;;;;;17.50;41.89;101264.56;4929725;28;98997;-71
2022/11/03 11:01:00;;;;;;;7.32;1.58;;;;;;;17.46;41.78;101263.00;4931030;28;100943;-73
2022/11/03 11:03:27;;;;;;;6.03;2.15;;;;;;;17.46;41.99;101254.97;4931115;28;97076;-72
2022/11/03 11:05:53;;;;;;;11.80;2.28;;;;;;;17.63;41.75;101246.06;4930684;28;97077;-71
2022/11/03 11:08:23;;;;;;;10.05;2.42;;;;;;;17.71;41.77;101251.84;4927139;28;98184;-72
2022/11/03 11:10:50;;;;;;;9.02;2.03;;;;;;;17.67;41.75;101244.94;4929324;28;98728;-71
2022/11/03 11:13:27;;;;;;;9.50;2.10;;;;;;;17.80;41.53;101241.47;4930912;28;97240;-72
2022/11/03 11:16:00;;;;;;;12.80;2.78;;;;;;;17.88;41.71;101233.88;4930636;28;98526;-73
2022/11/03 11:19:10;;;;;;;12.45;2.08;;;;;;;17.87;42.15;101229.47;4930623;28;97773;-71
2022/11/03 11:22:01;;;;;;;9.57;2.00;;;;;;;17.64;41.80;101226.41;4931158;28;98717;-72
2022/11/03 11:24:55;;;;;;;11.27;2.33;;;;;;;17.66;41.89;101225.34;4931813;28;97104;-72
2022/11/03 11:27:54;;;;;;;6.85;1.85;;;;;;;17.76;42.03;101221.22;4934108;28;96977;-72
2022/11/03 11:31:03;;;;;;;10.77;2.22;;;;;;;17.62;42.33;101210.47;4932053;28;99261;-75
2022/11/03 11:33:34;;;;;;;9.52;2.45;;;;;;;17.42;42.69;101206.22;4925110;28;100807;-72
2022/11/03 11:36:27;;;;;;;12.48;1.83;;;;;;;17.44;42.83;101206.13;4934901;28;96886;-73
2022/11/03 11:38:58;;;;;;;8.32;2.20;;;;;;;17.49;42.91;101199.59;4929172;28;97105;-71
2022/11/03 11:42:07;;;;;;;7.55;1.73;;;;;;;17.56;43.25;101196.56;4931752;28;99299;-72
2022/11/03 11:44:48;;;;;;;11.80;2.20;;;;;;;17.59;43.05;101194.56;4927321;28;98702;-72
2022/11/03 11:47:27;;;;;;;11.10;2.30;;;;;;;17.61;42.83;101183.81;4932784;28;96820;-71
2022/11/03 11:50:17;;;;;;;13.00;2.15;;;;;;;17.39;43.32;101176.16;4933318;28;97534;-72
2022/11/03 11:52:47;;;;;;;11.13;2.70;;;;;;;17.11;44.07;101171.50;4928404;28;99110;-72